sensor_id;sensor_type;location;lat;lon;timestamp;P1;durP1;ratioP1;P2;durP2;ratioP2
66603;SDS011;53460;39.612;8.822;2023-07-31T00:01:18;6.45;;;2.40;;
66603;SDS011;53460;39.612;8.822;2023-07-31T00:03:44;4.53;;;2.20;;
66603;SDS011;53460;39.612;8.822;2023-07-31T00:06:09;2.63;;;1.83;;
66603;SDS011;53460;39.612;8.822;2023-07-31T00:08:35;5.95;;;2.30;;
66603;SDS011;53460;39.612;8.822;2023-07-31T00:11:00;5.25;;;1.83;;
66603;SDS011;53460;39.612;8.822;2023-07-31T00:13:25;4.07;;;2.10;;
66603;SDS011;53460;39.612;8.822;2023-07-31T00:15:51;4.50;;;2.47;;
66603;SDS011;53460;39.612;8.822;2023-07-31T00:18:16;5.60;;;2.28;;
66603;SDS011;53460;39.612;8.822;2023-07-31T00:20:42;6.10;;;2.40;;
66603;SDS011;53460;39.612;8.822;2023-07-31T00:23:07;5.72;;;2.40;;
66603;SDS011;53460;39.612;8.822;2023-07-31T00:25:33;4.68;;;2.30;;
66603;SDS011;53460;39.612;8.822;2023-07-31T00:27:58;5.72;;;2.63;;
66603;SDS011;53460;39.612;8.822;2023-07-31T00:30:25;7.03;;;2.50;;
66603;SDS011;53460;39.612;8.822;2023-07-31T00:32:53;5.57;;;2.60;;
66603;SDS011;53460;39.612;8.822;2023-07-31T00:35:18;6.47;;;2.47;;
66603;SDS011;53460;39.612;8.822;2023-07-31T00:37:43;3.33;;;2.63;;
66603;SDS011;53460;39.612;8.822;2023-07-31T00:40:09;3.55;;;2.40;;
66603;SDS011;53460;39.612;8.822;2023-07-31T00:42:34;6.25;;;2.45;;
66603;SDS011;53460;39.612;8.822;2023-07-31T00:45:00;3.75;;;2.55;;
66603;SDS011;53460;39.612;8.822;2023-07-31T00:47:25;5.85;;;2.40;;
66603;SDS011;53460;39.612;8.822;2023-07-31T00:49:51;3.38;;;2.30;;
66603;SDS011;53460;39.612;8.822;2023-07-31T00:52:18;4.43;;;2.28;;
66603;SDS011;53460;39.612;8.822;2023-07-31T00:54:43;6.63;;;2.58;;
66603;SDS011;53460;39.612;8.822;2023-07-31T00:57:09;4.05;;;2.25;;
66603;SDS011;53460;39.612;8.822;2023-07-31T00:59:35;5.95;;;2.80;;
66603;SDS011;53460;39.612;8.822;2023-07-31T01:02:01;6.70;;;2.50;;
66603;SDS011;53460;39.612;8.822;2023-07-31T01:04:27;8.30;;;2.70;;
66603;SDS011;53460;39.612;8.822;2023-07-31T01:06:58;4.15;;;2.60;;
66603;SDS011;53460;39.612;8.822;2023-07-31T01:11:57;3.58;;;2.50;;
66603;SDS011;53460;39.612;8.822;2023-07-31T01:14:25;5.55;;;3.00;;
66603;SDS011;53460;39.612;8.822;2023-07-31T01:16:51;6.10;;;3.00;;
66603;SDS011;53460;39.612;8.822;2023-07-31T01:19:17;5.90;;;2.78;;
66603;SDS011;53460;39.612;8.822;2023-07-31T01:26:34;6.30;;;3.15;;
66603;SDS011;53460;39.612;8.822;2023-07-31T01:29:14;4.32;;;2.67;;
66603;SDS011;53460;39.612;8.822;2023-07-31T01:31:42;4.40;;;2.70;;
66603;SDS011;53460;39.612;8.822;2023-07-31T01:34:10;6.22;;;2.78;;
66603;SDS011;53460;39.612;8.822;2023-07-31T01:36:36;3.95;;;2.80;;
66603;SDS011;53460;39.612;8.822;2023-07-31T01:39:02;4.80;;;2.53;;
66603;SDS011;53460;39.612;8.822;2023-07-31T01:41:27;7.03;;;2.58;;
66603;SDS011;53460;39.612;8.822;2023-07-31T01:43:53;4.95;;;2.78;;
66603;SDS011;53460;39.612;8.822;2023-07-31T01:46:18;4.72;;;2.65;;
66603;SDS011;53460;39.612;8.822;2023-07-31T01:48:44;5.63;;;2.83;;
66603;SDS011;53460;39.612;8.822;2023-07-31T01:51:09;6.70;;;2.65;;
66603;SDS011;53460;39.612;8.822;2023-07-31T01:53:35;4.53;;;2.90;;
66603;SDS011;53460;39.612;8.822;2023-07-31T01:56:00;6.47;;;3.25;;
66603;SDS011;53460;39.612;8.822;2023-07-31T01:58:26;3.97;;;2.85;;
66603;SDS011;53460;39.612;8.822;2023-07-31T02:00:51;6.80;;;3.25;;
66603;SDS011;53460;39.612;8.822;2023-07-31T02:03:17;5.15;;;2.80;;
66603;SDS011;53460;39.612;8.822;2023-07-31T02:05:46;11.05;;;3.55;;
66603;SDS011;53460;39.612;8.822;2023-07-31T02:08:12;7.03;;;3.65;;
66603;SDS011;53460;39.612;8.822;2023-07-31T02:10:37;5.75;;;3.63;;
66603;SDS011;53460;39.612;8.822;2023-07-31T02:13:04;7.20;;;3.42;;
66603;SDS011;53460;39.612;8.822;2023-07-31T02:15:30;3.38;;;2.97;;
66603;SDS011;53460;39.612;8.822;2023-07-31T02:17:56;5.85;;;3.80;;
66603;SDS011;53460;39.612;8.822;2023-07-31T02:20:21;9.43;;;4.30;;
66603;SDS011;53460;39.612;8.822;2023-07-31T02:22:46;5.97;;;3.58;;
66603;SDS011;53460;39.612;8.822;2023-07-31T02:25:12;7.72;;;3.58;;
66603;SDS011;53460;39.612;8.822;2023-07-31T02:27:37;6.90;;;4.05;;
66603;SDS011;53460;39.612;8.822;2023-07-31T02:30:03;5.95;;;3.75;;
66603;SDS011;53460;39.612;8.822;2023-07-31T02:32:28;9.32;;;4.65;;
66603;SDS011;53460;39.612;8.822;2023-07-31T02:34:54;8.15;;;3.97;;
66603;SDS011;53460;39.612;8.822;2023-07-31T02:37:19;7.75;;;3.63;;
66603;SDS011;53460;39.612;8.822;2023-07-31T02:39:45;5.78;;;4.25;;
66603;SDS011;53460;39.612;8.822;2023-07-31T02:42:12;7.60;;;3.58;;
66603;SDS011;53460;39.612;8.822;2023-07-31T02:44:38;5.30;;;3.80;;
66603;SDS011;53460;39.612;8.822;2023-07-31T02:47:03;6.25;;;4.07;;
66603;SDS011;53460;39.612;8.822;2023-07-31T02:49:29;9.90;;;4.25;;
66603;SDS011;53460;39.612;8.822;2023-07-31T02:51:54;7.40;;;4.60;;
66603;SDS011;53460;39.612;8.822;2023-07-31T02:54:20;6.60;;;4.38;;
66603;SDS011;53460;39.612;8.822;2023-07-31T02:56:47;8.13;;;4.90;;
66603;SDS011;53460;39.612;8.822;2023-07-31T02:59:13;5.55;;;4.22;;
66603;SDS011;53460;39.612;8.822;2023-07-31T03:01:39;4.63;;;3.53;;
66603;SDS011;53460;39.612;8.822;2023-07-31T03:04:04;4.90;;;3.55;;
66603;SDS011;53460;39.612;8.822;2023-07-31T03:06:30;6.65;;;4.00;;
66603;SDS011;53460;39.612;8.822;2023-07-31T03:08:55;5.30;;;3.72;;
66603;SDS011;53460;39.612;8.822;2023-07-31T03:11:21;4.35;;;3.67;;
66603;SDS011;53460;39.612;8.822;2023-07-31T03:13:46;4.45;;;3.75;;
66603;SDS011;53460;39.612;8.822;2023-07-31T03:16:12;6.80;;;4.03;;
66603;SDS011;53460;39.612;8.822;2023-07-31T03:18:37;7.82;;;4.68;;
66603;SDS011;53460;39.612;8.822;2023-07-31T03:21:03;6.63;;;4.43;;
66603;SDS011;53460;39.612;8.822;2023-07-31T03:23:29;8.27;;;4.38;;
66603;SDS011;53460;39.612;8.822;2023-07-31T03:25:55;5.53;;;4.22;;
66603;SDS011;53460;39.612;8.822;2023-07-31T03:28:21;5.20;;;4.40;;
66603;SDS011;53460;39.612;8.822;2023-07-31T03:30:47;7.85;;;4.95;;
66603;SDS011;53460;39.612;8.822;2023-07-31T03:33:14;9.27;;;4.85;;
66603;SDS011;53460;39.612;8.822;2023-07-31T03:35:39;6.55;;;4.65;;
66603;SDS011;53460;39.612;8.822;2023-07-31T03:38:05;7.70;;;5.05;;
66603;SDS011;53460;39.612;8.822;2023-07-31T03:40:30;5.28;;;4.78;;
66603;SDS011;53460;39.612;8.822;2023-07-31T03:42:55;6.55;;;5.28;;
66603;SDS011;53460;39.612;8.822;2023-07-31T03:45:21;7.57;;;6.28;;
66603;SDS011;53460;39.612;8.822;2023-07-31T03:47:46;7.75;;;5.90;;
66603;SDS011;53460;39.612;8.822;2023-07-31T03:50:12;8.77;;;5.70;;
66603;SDS011;53460;39.612;8.822;2023-07-31T03:52:38;6.47;;;4.93;;
66603;SDS011;53460;39.612;8.822;2023-07-31T03:55:03;8.75;;;6.25;;
66603;SDS011;53460;39.612;8.822;2023-07-31T03:57:29;8.27;;;5.90;;
66603;SDS011;53460;39.612;8.822;2023-07-31T03:59:54;6.88;;;5.18;;
66603;SDS011;53460;39.612;8.822;2023-07-31T04:02:20;10.15;;;5.47;;
66603;SDS011;53460;39.612;8.822;2023-07-31T04:04:45;6.60;;;4.97;;
66603;SDS011;53460;39.612;8.822;2023-07-31T04:07:11;9.43;;;5.55;;
66603;SDS011;53460;39.612;8.822;2023-07-31T04:09:36;7.18;;;5.55;;
66603;SDS011;53460;39.612;8.822;2023-07-31T04:12:02;9.75;;;4.70;;
66603;SDS011;53460;39.612;8.822;2023-07-31T04:14:27;5.95;;;4.43;;
66603;SDS011;53460;39.612;8.822;2023-07-31T04:16:52;12.15;;;4.80;;
66603;SDS011;53460;39.612;8.822;2023-07-31T04:19:18;7.28;;;4.80;;
66603;SDS011;53460;39.612;8.822;2023-07-31T04:21:43;7.80;;;5.00;;
66603;SDS011;53460;39.612;8.822;2023-07-31T04:24:09;7.05;;;4.90;;
66603;SDS011;53460;39.612;8.822;2023-07-31T04:26:34;13.20;;;4.63;;
66603;SDS011;53460;39.612;8.822;2023-07-31T04:29:00;5.90;;;4.68;;
66603;SDS011;53460;39.612;8.822;2023-07-31T04:31:25;7.85;;;4.78;;
66603;SDS011;53460;39.612;8.822;2023-07-31T04:33:51;6.03;;;4.53;;
66603;SDS011;53460;39.612;8.822;2023-07-31T04:36:16;6.55;;;4.10;;
66603;SDS011;53460;39.612;8.822;2023-07-31T04:38:41;6.30;;;4.65;;
66603;SDS011;53460;39.612;8.822;2023-07-31T04:41:07;6.75;;;5.13;;
66603;SDS011;53460;39.612;8.822;2023-07-31T04:43:32;8.73;;;4.40;;
66603;SDS011;53460;39.612;8.822;2023-07-31T04:45:58;6.10;;;4.22;;
66603;SDS011;53460;39.612;8.822;2023-07-31T04:48:23;6.78;;;4.18;;
66603;SDS011;53460;39.612;8.822;2023-07-31T04:50:49;9.90;;;4.30;;
66603;SDS011;53460;39.612;8.822;2023-07-31T04:53:14;6.13;;;3.70;;
66603;SDS011;53460;39.612;8.822;2023-07-31T04:55:40;6.60;;;4.22;;
66603;SDS011;53460;39.612;8.822;2023-07-31T04:58:05;6.18;;;3.85;;
66603;SDS011;53460;39.612;8.822;2023-07-31T05:00:31;5.72;;;3.72;;
66603;SDS011;53460;39.612;8.822;2023-07-31T05:02:56;5.43;;;3.60;;
66603;SDS011;53460;39.612;8.822;2023-07-31T05:05:22;5.28;;;3.63;;
66603;SDS011;53460;39.612;8.822;2023-07-31T05:07:47;7.28;;;4.95;;
66603;SDS011;53460;39.612;8.822;2023-07-31T05:10:13;7.15;;;3.63;;
66603;SDS011;53460;39.612;8.822;2023-07-31T05:12:38;8.25;;;3.92;;
66603;SDS011;53460;39.612;8.822;2023-07-31T05:15:04;13.30;;;4.15;;
66603;SDS011;53460;39.612;8.822;2023-07-31T05:17:29;7.47;;;3.92;;
66603;SDS011;53460;39.612;8.822;2023-07-31T05:19:55;5.82;;;3.78;;
66603;SDS011;53460;39.612;8.822;2023-07-31T05:22:20;6.45;;;3.55;;
66603;SDS011;53460;39.612;8.822;2023-07-31T05:24:46;10.32;;;4.18;;
66603;SDS011;53460;39.612;8.822;2023-07-31T05:27:11;5.20;;;4.10;;
66603;SDS011;53460;39.612;8.822;2023-07-31T05:29:40;7.93;;;3.72;;
66603;SDS011;53460;39.612;8.822;2023-07-31T05:32:06;7.10;;;3.85;;
66603;SDS011;53460;39.612;8.822;2023-07-31T05:34:31;5.38;;;3.63;;
66603;SDS011;53460;39.612;8.822;2023-07-31T05:36:57;9.52;;;3.85;;
66603;SDS011;53460;39.612;8.822;2023-07-31T05:39:22;9.25;;;3.75;;
66603;SDS011;53460;39.612;8.822;2023-07-31T05:41:47;6.53;;;3.65;;
66603;SDS011;53460;39.612;8.822;2023-07-31T05:44:13;8.20;;;3.80;;
66603;SDS011;53460;39.612;8.822;2023-07-31T05:46:38;7.15;;;4.25;;
66603;SDS011;53460;39.612;8.822;2023-07-31T05:49:04;6.78;;;3.67;;
66603;SDS011;53460;39.612;8.822;2023-07-31T05:51:29;4.78;;;2.80;;
66603;SDS011;53460;39.612;8.822;2023-07-31T05:53:55;6.53;;;2.95;;
66603;SDS011;53460;39.612;8.822;2023-07-31T05:56:20;3.92;;;3.10;;
66603;SDS011;53460;39.612;8.822;2023-07-31T05:58:46;5.57;;;3.30;;
66603;SDS011;53460;39.612;8.822;2023-07-31T06:01:12;6.38;;;3.10;;
66603;SDS011;53460;39.612;8.822;2023-07-31T06:03:37;5.60;;;3.08;;
66603;SDS011;53460;39.612;8.822;2023-07-31T06:06:02;5.97;;;3.53;;
66603;SDS011;53460;39.612;8.822;2023-07-31T06:08:28;7.28;;;2.17;;
66603;SDS011;53460;39.612;8.822;2023-07-31T06:10:53;6.50;;;2.20;;
66603;SDS011;53460;39.612;8.822;2023-07-31T06:13:19;4.22;;;1.95;;
66603;SDS011;53460;39.612;8.822;2023-07-31T06:15:44;7.95;;;2.20;;
66603;SDS011;53460;39.612;8.822;2023-07-31T06:18:10;6.82;;;2.00;;
66603;SDS011;53460;39.612;8.822;2023-07-31T06:20:35;6.95;;;2.25;;
66603;SDS011;53460;39.612;8.822;2023-07-31T06:23:01;6.53;;;2.80;;
66603;SDS011;53460;39.612;8.822;2023-07-31T06:25:26;4.07;;;2.00;;
66603;SDS011;53460;39.612;8.822;2023-07-31T06:27:52;4.20;;;2.42;;
66603;SDS011;53460;39.612;8.822;2023-07-31T06:30:17;4.43;;;2.00;;
66603;SDS011;53460;39.612;8.822;2023-07-31T06:32:43;4.07;;;2.10;;
66603;SDS011;53460;39.612;8.822;2023-07-31T06:35:08;6.22;;;1.77;;
66603;SDS011;53460;39.612;8.822;2023-07-31T06:37:34;3.35;;;1.52;;
66603;SDS011;53460;39.612;8.822;2023-07-31T06:39:59;4.05;;;1.50;;
66603;SDS011;53460;39.612;8.822;2023-07-31T06:42:25;4.43;;;2.30;;
66603;SDS011;53460;39.612;8.822;2023-07-31T06:44:51;4.90;;;1.70;;
66603;SDS011;53460;39.612;8.822;2023-07-31T06:47:16;4.20;;;1.67;;
66603;SDS011;53460;39.612;8.822;2023-07-31T06:49:42;3.70;;;1.70;;
66603;SDS011;53460;39.612;8.822;2023-07-31T06:52:07;3.85;;;1.80;;
66603;SDS011;53460;39.612;8.822;2023-07-31T06:54:32;7.78;;;1.75;;
66603;SDS011;53460;39.612;8.822;2023-07-31T06:56:58;6.20;;;1.25;;
66603;SDS011;53460;39.612;8.822;2023-07-31T06:59:23;4.20;;;1.63;;
66603;SDS011;53460;39.612;8.822;2023-07-31T07:01:49;6.05;;;1.77;;
66603;SDS011;53460;39.612;8.822;2023-07-31T07:04:14;3.53;;;1.45;;
66603;SDS011;53460;39.612;8.822;2023-07-31T07:06:40;2.85;;;1.50;;
66603;SDS011;53460;39.612;8.822;2023-07-31T07:09:05;2.63;;;1.60;;
66603;SDS011;53460;39.612;8.822;2023-07-31T07:11:31;5.03;;;1.90;;
66603;SDS011;53460;39.612;8.822;2023-07-31T07:13:56;4.85;;;1.60;;
66603;SDS011;53460;39.612;8.822;2023-07-31T07:16:22;5.38;;;1.77;;
66603;SDS011;53460;39.612;8.822;2023-07-31T07:18:47;4.07;;;1.50;;
66603;SDS011;53460;39.612;8.822;2023-07-31T07:21:13;4.50;;;1.45;;
66603;SDS011;53460;39.612;8.822;2023-07-31T07:23:41;3.40;;;1.20;;
66603;SDS011;53460;39.612;8.822;2023-07-31T07:26:06;4.88;;;1.85;;
66603;SDS011;53460;39.612;8.822;2023-07-31T07:28:32;4.70;;;1.55;;
66603;SDS011;53460;39.612;8.822;2023-07-31T07:30:57;4.45;;;1.55;;
66603;SDS011;53460;39.612;8.822;2023-07-31T07:33:23;5.75;;;1.60;;
66603;SDS011;53460;39.612;8.822;2023-07-31T07:35:48;6.70;;;2.10;;
66603;SDS011;53460;39.612;8.822;2023-07-31T07:38:14;3.35;;;1.50;;
66603;SDS011;53460;39.612;8.822;2023-07-31T07:40:44;4.80;;;1.60;;
66603;SDS011;53460;39.612;8.822;2023-07-31T07:43:12;3.03;;;1.70;;
66603;SDS011;53460;39.612;8.822;2023-07-31T07:45:37;3.35;;;1.65;;
66603;SDS011;53460;39.612;8.822;2023-07-31T07:48:03;2.75;;;1.40;;
66603;SDS011;53460;39.612;8.822;2023-07-31T07:50:28;6.63;;;1.50;;
66603;SDS011;53460;39.612;8.822;2023-07-31T07:52:54;5.88;;;1.45;;
66603;SDS011;53460;39.612;8.822;2023-07-31T07:55:19;4.75;;;1.95;;
66603;SDS011;53460;39.612;8.822;2023-07-31T07:57:45;3.35;;;1.27;;
66603;SDS011;53460;39.612;8.822;2023-07-31T08:00:11;4.78;;;1.50;;
66603;SDS011;53460;39.612;8.822;2023-07-31T08:02:41;4.73;;;1.50;;
66603;SDS011;53460;39.612;8.822;2023-07-31T08:05:07;3.60;;;1.45;;
66603;SDS011;53460;39.612;8.822;2023-07-31T08:07:33;2.97;;;1.55;;
66603;SDS011;53460;39.612;8.822;2023-07-31T08:09:58;17.67;;;3.17;;
66603;SDS011;53460;39.612;8.822;2023-07-31T08:12:24;5.40;;;1.50;;
66603;SDS011;53460;39.612;8.822;2023-07-31T08:14:50;6.20;;;1.70;;
66603;SDS011;53460;39.612;8.822;2023-07-31T08:17:15;6.15;;;1.52;;
66603;SDS011;53460;39.612;8.822;2023-07-31T08:19:41;1.83;;;1.25;;
66603;SDS011;53460;39.612;8.822;2023-07-31T08:22:06;6.68;;;1.30;;
66603;SDS011;53460;39.612;8.822;2023-07-31T08:24:31;3.55;;;1.40;;
66603;SDS011;53460;39.612;8.822;2023-07-31T08:26:57;2.45;;;1.52;;
66603;SDS011;53460;39.612;8.822;2023-07-31T08:29:22;3.70;;;1.40;;
66603;SDS011;53460;39.612;8.822;2023-07-31T08:31:49;4.30;;;1.35;;
66603;SDS011;53460;39.612;8.822;2023-07-31T08:34:14;5.28;;;1.92;;
66603;SDS011;53460;39.612;8.822;2023-07-31T08:36:39;4.40;;;1.95;;
66603;SDS011;53460;39.612;8.822;2023-07-31T08:39:05;4.82;;;2.15;;
66603;SDS011;53460;39.612;8.822;2023-07-31T08:41:31;4.00;;;1.45;;
66603;SDS011;53460;39.612;8.822;2023-07-31T08:43:57;5.70;;;1.52;;
66603;SDS011;53460;39.612;8.822;2023-07-31T08:46:23;5.25;;;1.20;;
66603;SDS011;53460;39.612;8.822;2023-07-31T08:48:48;4.63;;;1.60;;
66603;SDS011;53460;39.612;8.822;2023-07-31T08:51:14;5.88;;;1.48;;
66603;SDS011;53460;39.612;8.822;2023-07-31T08:53:39;3.60;;;1.40;;
66603;SDS011;53460;39.612;8.822;2023-07-31T08:56:05;5.70;;;1.60;;
66603;SDS011;53460;39.612;8.822;2023-07-31T08:58:31;3.63;;;1.35;;
66603;SDS011;53460;39.612;8.822;2023-07-31T09:00:57;6.22;;;1.30;;
66603;SDS011;53460;39.612;8.822;2023-07-31T09:03:24;3.20;;;1.25;;
66603;SDS011;53460;39.612;8.822;2023-07-31T09:05:51;3.97;;;1.40;;
66603;SDS011;53460;39.612;8.822;2023-07-31T09:08:20;4.03;;;1.52;;
66603;SDS011;53460;39.612;8.822;2023-07-31T09:10:46;2.15;;;1.25;;
66603;SDS011;53460;39.612;8.822;2023-07-31T09:13:12;4.90;;;1.35;;
66603;SDS011;53460;39.612;8.822;2023-07-31T09:15:37;3.65;;;1.70;;
66603;SDS011;53460;39.612;8.822;2023-07-31T09:18:04;5.63;;;1.75;;
66603;SDS011;53460;39.612;8.822;2023-07-31T09:20:30;2.13;;;1.20;;
66603;SDS011;53460;39.612;8.822;2023-07-31T09:22:57;2.78;;;1.25;;
66603;SDS011;53460;39.612;8.822;2023-07-31T09:25:30;3.97;;;1.63;;
66603;SDS011;53460;39.612;8.822;2023-07-31T09:27:59;5.75;;;1.63;;
66603;SDS011;53460;39.612;8.822;2023-07-31T09:30:25;6.57;;;1.42;;
66603;SDS011;53460;39.612;8.822;2023-07-31T09:32:51;4.55;;;1.58;;
66603;SDS011;53460;39.612;8.822;2023-07-31T09:35:30;4.68;;;1.50;;
66603;SDS011;53460;39.612;8.822;2023-07-31T09:38:06;4.85;;;1.67;;
66603;SDS011;53460;39.612;8.822;2023-07-31T09:40:33;8.40;;;1.92;;
66603;SDS011;53460;39.612;8.822;2023-07-31T09:43:11;5.25;;;1.58;;
66603;SDS011;53460;39.612;8.822;2023-07-31T09:45:38;5.78;;;1.73;;
66603;SDS011;53460;39.612;8.822;2023-07-31T09:48:06;3.05;;;1.50;;
66603;SDS011;53460;39.612;8.822;2023-07-31T09:50:32;7.20;;;1.45;;
66603;SDS011;53460;39.612;8.822;2023-07-31T09:52:58;7.43;;;1.83;;
66603;SDS011;53460;39.612;8.822;2023-07-31T09:55:23;6.45;;;2.08;;
66603;SDS011;53460;39.612;8.822;2023-07-31T09:57:49;2.88;;;1.65;;
66603;SDS011;53460;39.612;8.822;2023-07-31T10:00:16;5.97;;;1.85;;
66603;SDS011;53460;39.612;8.822;2023-07-31T10:02:44;5.75;;;1.63;;
66603;SDS011;53460;39.612;8.822;2023-07-31T10:05:10;5.80;;;1.58;;
66603;SDS011;53460;39.612;8.822;2023-07-31T10:07:37;4.78;;;1.60;;
66603;SDS011;53460;39.612;8.822;2023-07-31T10:10:05;7.07;;;1.90;;
66603;SDS011;53460;39.612;8.822;2023-07-31T10:12:33;5.97;;;1.60;;
66603;SDS011;53460;39.612;8.822;2023-07-31T10:15:00;6.90;;;1.60;;
66603;SDS011;53460;39.612;8.822;2023-07-31T10:17:26;6.90;;;2.08;;
66603;SDS011;53460;39.612;8.822;2023-07-31T10:19:51;4.45;;;2.00;;
66603;SDS011;53460;39.612;8.822;2023-07-31T10:22:19;6.03;;;2.03;;
66603;SDS011;53460;39.612;8.822;2023-07-31T10:24:48;4.13;;;1.75;;
66603;SDS011;53460;39.612;8.822;2023-07-31T10:27:14;3.75;;;1.83;;
66603;SDS011;53460;39.612;8.822;2023-07-31T10:29:39;3.78;;;1.55;;
66603;SDS011;53460;39.612;8.822;2023-07-31T10:32:06;5.00;;;2.10;;
66603;SDS011;53460;39.612;8.822;2023-07-31T10:34:37;5.45;;;1.92;;
66603;SDS011;53460;39.612;8.822;2023-07-31T10:42:34;6.55;;;2.30;;
66603;SDS011;53460;39.612;8.822;2023-07-31T10:45:04;6.78;;;2.10;;
66603;SDS011;53460;39.612;8.822;2023-07-31T10:47:31;4.63;;;2.17;;
66603;SDS011;53460;39.612;8.822;2023-07-31T10:50:10;5.72;;;1.88;;
66603;SDS011;53460;39.612;8.822;2023-07-31T10:52:36;7.30;;;2.20;;
66603;SDS011;53460;39.612;8.822;2023-07-31T10:57:49;5.00;;;2.08;;
66603;SDS011;53460;39.612;8.822;2023-07-31T11:00:21;4.72;;;2.13;;
66603;SDS011;53460;39.612;8.822;2023-07-31T11:02:57;4.60;;;1.83;;
66603;SDS011;53460;39.612;8.822;2023-07-31T11:08:17;5.00;;;2.22;;
66603;SDS011;53460;39.612;8.822;2023-07-31T11:10:43;9.10;;;2.30;;
66603;SDS011;53460;39.612;8.822;2023-07-31T11:13:09;8.98;;;2.53;;
66603;SDS011;53460;39.612;8.822;2023-07-31T11:15:34;4.07;;;2.60;;
66603;SDS011;53460;39.612;8.822;2023-07-31T11:18:00;7.03;;;2.33;;
66603;SDS011;53460;39.612;8.822;2023-07-31T11:20:31;5.57;;;2.40;;
66603;SDS011;53460;39.612;8.822;2023-07-31T11:23:01;6.82;;;3.60;;
66603;SDS011;53460;39.612;8.822;2023-07-31T11:25:28;8.98;;;2.50;;
66603;SDS011;53460;39.612;8.822;2023-07-31T11:27:53;5.57;;;2.20;;
66603;SDS011;53460;39.612;8.822;2023-07-31T11:30:21;7.00;;;3.20;;
66603;SDS011;53460;39.612;8.822;2023-07-31T11:32:47;5.32;;;2.10;;
66603;SDS011;53460;39.612;8.822;2023-07-31T11:35:12;5.25;;;2.28;;
66603;SDS011;53460;39.612;8.822;2023-07-31T11:37:41;4.97;;;2.20;;
66603;SDS011;53460;39.612;8.822;2023-07-31T11:40:07;6.78;;;2.33;;
66603;SDS011;53460;39.612;8.822;2023-07-31T11:42:34;5.28;;;2.10;;
66603;SDS011;53460;39.612;8.822;2023-07-31T11:45:01;5.93;;;2.40;;
66603;SDS011;53460;39.612;8.822;2023-07-31T11:47:27;6.55;;;2.00;;
66603;SDS011;53460;39.612;8.822;2023-07-31T11:49:52;6.35;;;2.33;;
66603;SDS011;53460;39.612;8.822;2023-07-31T11:52:18;5.93;;;2.22;;
66603;SDS011;53460;39.612;8.822;2023-07-31T11:54:45;4.95;;;2.65;;
66603;SDS011;53460;39.612;8.822;2023-07-31T11:57:11;6.03;;;2.28;;
66603;SDS011;53460;39.612;8.822;2023-07-31T11:59:37;2.95;;;2.00;;
66603;SDS011;53460;39.612;8.822;2023-07-31T12:02:03;6.32;;;2.20;;
66603;SDS011;53460;39.612;8.822;2023-07-31T12:04:29;3.70;;;1.92;;
66603;SDS011;53460;39.612;8.822;2023-07-31T12:06:54;4.75;;;3.60;;
66603;SDS011;53460;39.612;8.822;2023-07-31T12:09:20;6.65;;;3.53;;
66603;SDS011;53460;39.612;8.822;2023-07-31T12:11:46;7.82;;;3.00;;
66603;SDS011;53460;39.612;8.822;2023-07-31T12:14:21;6.65;;;2.90;;
66603;SDS011;53460;39.612;8.822;2023-07-31T12:16:47;4.45;;;2.30;;
66603;SDS011;53460;39.612;8.822;2023-07-31T12:19:13;4.50;;;2.75;;
66603;SDS011;53460;39.612;8.822;2023-07-31T12:21:38;6.88;;;2.45;;
66603;SDS011;53460;39.612;8.822;2023-07-31T12:24:04;7.28;;;3.03;;
66603;SDS011;53460;39.612;8.822;2023-07-31T12:26:36;5.20;;;3.22;;
66603;SDS011;53460;39.612;8.822;2023-07-31T12:29:01;6.38;;;3.55;;
66603;SDS011;53460;39.612;8.822;2023-07-31T12:31:27;5.80;;;4.05;;
66603;SDS011;53460;39.612;8.822;2023-07-31T12:33:53;7.22;;;5.30;;
66603;SDS011;53460;39.612;8.822;2023-07-31T12:36:22;4.93;;;3.38;;
66603;SDS011;53460;39.612;8.822;2023-07-31T12:38:49;5.80;;;3.10;;
66603;SDS011;53460;39.612;8.822;2023-07-31T12:41:15;7.70;;;3.13;;
66603;SDS011;53460;39.612;8.822;2023-07-31T12:43:41;6.82;;;2.63;;
66603;SDS011;53460;39.612;8.822;2023-07-31T12:46:07;8.85;;;4.18;;
66603;SDS011;53460;39.612;8.822;2023-07-31T12:48:33;9.30;;;3.75;;
66603;SDS011;53460;39.612;8.822;2023-07-31T12:50:59;5.03;;;4.03;;
66603;SDS011;53460;39.612;8.822;2023-07-31T12:53:24;4.50;;;2.63;;
66603;SDS011;53460;39.612;8.822;2023-07-31T12:55:50;3.97;;;2.10;;
66603;SDS011;53460;39.612;8.822;2023-07-31T12:58:15;2.42;;;2.10;;
66603;SDS011;53460;39.612;8.822;2023-07-31T13:00:41;5.72;;;4.97;;
66603;SDS011;53460;39.612;8.822;2023-07-31T13:03:06;4.00;;;3.13;;
66603;SDS011;53460;39.612;8.822;2023-07-31T13:05:32;8.27;;;2.42;;
66603;SDS011;53460;39.612;8.822;2023-07-31T13:07:57;5.75;;;2.85;;
66603;SDS011;53460;39.612;8.822;2023-07-31T13:10:23;6.10;;;3.42;;
66603;SDS011;53460;39.612;8.822;2023-07-31T13:12:49;10.38;;;3.83;;
66603;SDS011;53460;39.612;8.822;2023-07-31T13:15:14;4.78;;;2.85;;
66603;SDS011;53460;39.612;8.822;2023-07-31T13:17:40;6.45;;;3.40;;
66603;SDS011;53460;39.612;8.822;2023-07-31T13:20:06;4.28;;;2.20;;
66603;SDS011;53460;39.612;8.822;2023-07-31T13:22:32;3.60;;;1.80;;
66603;SDS011;53460;39.612;8.822;2023-07-31T13:24:57;4.68;;;1.90;;
66603;SDS011;53460;39.612;8.822;2023-07-31T13:27:23;1.77;;;1.40;;
66603;SDS011;53460;39.612;8.822;2023-07-31T13:29:49;14.77;;;2.10;;
66603;SDS011;53460;39.612;8.822;2023-07-31T13:32:15;3.22;;;1.90;;
66603;SDS011;53460;39.612;8.822;2023-07-31T13:34:41;3.83;;;2.55;;
66603;SDS011;53460;39.612;8.822;2023-07-31T13:37:07;4.72;;;2.15;;
66603;SDS011;53460;39.612;8.822;2023-07-31T13:39:32;3.50;;;1.85;;
66603;SDS011;53460;39.612;8.822;2023-07-31T13:42:02;4.32;;;1.88;;
66603;SDS011;53460;39.612;8.822;2023-07-31T13:44:28;3.40;;;1.70;;
66603;SDS011;53460;39.612;8.822;2023-07-31T13:46:53;3.67;;;1.80;;
66603;SDS011;53460;39.612;8.822;2023-07-31T13:49:19;3.15;;;1.83;;
66603;SDS011;53460;39.612;8.822;2023-07-31T13:51:44;6.47;;;2.10;;
66603;SDS011;53460;39.612;8.822;2023-07-31T13:54:10;4.80;;;1.85;;
66603;SDS011;53460;39.612;8.822;2023-07-31T13:56:36;7.20;;;1.60;;
66603;SDS011;53460;39.612;8.822;2023-07-31T13:59:02;5.78;;;1.70;;
66603;SDS011;53460;39.612;8.822;2023-07-31T14:01:27;3.17;;;1.70;;
66603;SDS011;53460;39.612;8.822;2023-07-31T14:03:53;3.25;;;1.92;;
66603;SDS011;53460;39.612;8.822;2023-07-31T14:06:19;3.38;;;1.75;;
66603;SDS011;53460;39.612;8.822;2023-07-31T14:08:44;5.28;;;1.70;;
66603;SDS011;53460;39.612;8.822;2023-07-31T14:11:10;2.72;;;1.60;;
66603;SDS011;53460;39.612;8.822;2023-07-31T14:13:35;4.93;;;1.85;;
66603;SDS011;53460;39.612;8.822;2023-07-31T14:16:01;4.95;;;1.77;;
66603;SDS011;53460;39.612;8.822;2023-07-31T14:18:26;3.03;;;1.70;;
66603;SDS011;53460;39.612;8.822;2023-07-31T14:20:53;4.07;;;1.90;;
66603;SDS011;53460;39.612;8.822;2023-07-31T14:23:18;4.00;;;1.80;;
66603;SDS011;53460;39.612;8.822;2023-07-31T14:25:45;2.35;;;1.50;;
66603;SDS011;53460;39.612;8.822;2023-07-31T14:28:11;5.25;;;2.20;;
66603;SDS011;53460;39.612;8.822;2023-07-31T14:30:36;5.90;;;2.50;;
66603;SDS011;53460;39.612;8.822;2023-07-31T14:33:02;6.20;;;3.13;;
66603;SDS011;53460;39.612;8.822;2023-07-31T14:35:27;7.03;;;5.55;;
66603;SDS011;53460;39.612;8.822;2023-07-31T14:37:53;6.35;;;4.65;;
66603;SDS011;53460;39.612;8.822;2023-07-31T14:40:18;15.73;;;10.55;;
66603;SDS011;53460;39.612;8.822;2023-07-31T14:42:44;13.82;;;9.57;;
66603;SDS011;53460;39.612;8.822;2023-07-31T14:45:09;4.40;;;3.08;;
66603;SDS011;53460;39.612;8.822;2023-07-31T14:47:35;5.57;;;2.75;;
66603;SDS011;53460;39.612;8.822;2023-07-31T14:50:01;5.50;;;1.92;;
66603;SDS011;53460;39.612;8.822;2023-07-31T14:52:26;4.57;;;2.17;;
66603;SDS011;53460;39.612;8.822;2023-07-31T14:54:52;5.45;;;2.00;;
66603;SDS011;53460;39.612;8.822;2023-07-31T14:57:17;3.83;;;1.88;;
66603;SDS011;53460;39.612;8.822;2023-07-31T14:59:43;4.22;;;1.92;;